Time;durP1;ratioP1;P1;durP2;ratioP2;P2;SDS_P1;SDS_P2;PMS_P1;PMS_P2;Temp;Humidity;BMP_temperature;BMP_pressure;BME280_temperature;BME280_humidity;BME280_pressure;Samples;Min_cycle;Max_cycle;Signal;HPM_P1;HPM_P2
2022/01/03 00:00:38;;;;;;;93.40;52.38;;;;;;;8.23;63.25;101421.38;5049291;28;20918;-78
2022/01/03 00:03:07;;;;;;;219.60;64.20;;;;;;;8.09;64.33;101412.59;5048111;28;20425;-79
2022/01/03 00:05:35;;;;;;;215.75;61.78;;;;;;;8.07;64.35;101396.88;5049173;28;20795;-79
2022/01/03 00:08:03;;;;;;;162.90;64.13;;;;;;;8.03;66.08;101398.84;5049200;28;20414;-79
2022/01/03 00:10:33;;;;;;;135.07;59.58;;;;;;;8.21;65.63;101407.41;5049461;28;20416;-79
2022/01/03 00:13:00;;;;;;;135.05;60.83;;;;;;;8.22;65.80;101405.63;5031621;28;20436;-81
2022/01/03 00:15:28;;;;;;;139.40;61.80;;;;;;;8.67;64.62;101398.41;5049119;28;20519;-79
2022/01/03 00:17:55;;;;;;;130.20;58.45;;;;;;;8.21;66.43;101382.78;5049247;28;20855;-78
2022/01/03 00:20:25;;;;;;;138.53;58.67;;;;;;;7.74;68.70;101386.56;5049360;28;20530;-79
2022/01/03 00:22:59;;;;;;;181.82;60.38;;;;;;;7.61;69.57;101386.44;5048855;28;20428;-79
2022/01/03 00:25:27;;;;;;;184.60;66.20;;;;;;;8.36;66.92;101384.50;5049195;28;20424;-79
2022/01/03 00:28:03;;;;;;;236.95;69.93;;;;;;;8.46;66.59;101395.34;5048672;28;20432;-78
2022/01/03 00:30:33;;;;;;;162.43;66.57;;;;;;;8.82;65.25;101386.88;5049095;28;20470;-80
2022/01/03 00:33:02;;;;;;;167.13;67.38;;;;;;;9.11;64.56;101392.06;5048789;28;20428;-80
2022/01/03 00:35:30;;;;;;;162.82;61.60;;;;;;;9.13;63.85;101411.31;5049329;28;20435;-78
2022/01/03 00:38:00;;;;;;;140.43;57.45;;;;;;;9.25;63.34;101403.53;5048772;28;20495;-79
2022/01/03 00:40:28;;;;;;;132.95;54.55;;;;;;;8.99;63.88;101406.91;5048745;28;20865;-80
2022/01/03 00:42:55;;;;;;;130.90;55.50;;;;;;;9.01;64.13;101410.31;5048670;28;20792;-79
2022/01/03 00:45:24;;;;;;;133.80;60.90;;;;;;;8.96;64.06;101393.03;5048876;28;20500;-80
2022/01/03 00:47:51;;;;;;;158.15;65.05;;;;;;;8.77;63.87;101382.84;5049679;28;20463;-80
2022/01/03 00:50:22;;;;;;;151.00;59.83;;;;;;;8.67;63.98;101379.09;5052625;28;20416;-79
2022/01/03 00:52:49;;;;;;;105.33;57.83;;;;;;;8.94;63.05;101377.31;5034405;28;20436;-78
2022/01/03 00:55:16;;;;;;;105.65;55.45;;;;;;;8.86;62.98;101381.38;5034516;28;20416;-79
2022/01/03 00:57:58;;;;;;;87.68;53.85;;;;;;;8.41;65.28;101387.72;5052250;28;20416;-79
2022/01/03 01:00:29;;;;;;;87.18;55.08;;;;;;;8.99;62.88;101387.56;5052514;28;20439;-79
2022/01/03 01:03:03;;;;;;;103.17;56.73;;;;;;;9.14;61.75;101375.97;5052137;28;20415;-79
2022/01/03 01:05:30;;;;;;;86.70;53.97;;;;;;;9.25;61.39;101380.56;5052471;28;20474;-78
2022/01/03 01:07:58;;;;;;;88.25;51.45;;;;;;;8.94;61.92;101398.44;5052339;28;20470;-80
2022/01/03 01:10:29;;;;;;;93.07;51.10;;;;;;;8.87;61.74;101391.00;5052405;28;20850;-79
2022/01/03 01:12:56;;;;;;;106.88;53.38;;;;;;;8.88;61.47;101383.00;5052217;28;20429;-78
2022/01/03 01:15:24;;;;;;;206.75;58.38;;;;;;;9.08;60.69;101380.81;5051912;28;20847;-78
2022/01/03 01:17:53;;;;;;;96.40;52.40;;;;;;;8.71;61.64;101367.38;5051450;28;21141;-78
2022/01/03 01:20:20;;;;;;;100.40;49.20;;;;;;;8.02;64.21;101352.28;5052142;28;20408;-79
2022/01/03 01:22:48;;;;;;;118.80;48.03;;;;;;;7.46;66.61;101350.44;5051696;28;20413;-78
2022/01/03 01:27:46;;;;;;;136.15;50.88;;;;;;;7.68;66.34;101348.22;5051770;28;20886;-78
2022/01/03 01:28:13;;;;;;;111.20;56.20;;;;;;;8.49;63.55;101346.78;5051573;28;20865;-79
2022/01/03 01:30:41;;;;;;;134.75;55.40;;;;;;;8.42;63.50;101330.47;5051579;28;20412;-79
2022/01/03 01:33:12;;;;;;;106.15;51.15;;;;;;;7.77;65.50;101320.44;5051781;28;20468;-78
2022/01/03 01:35:46;;;;;;;119.43;52.93;;;;;;;7.46;67.33;101314.41;5051857;28;20504;-78
2022/01/03 01:38:15;;;;;;;128.10;53.53;;;;;;;7.30;68.50;101309.19;5051428;28;20891;-77
2022/01/03 01:40:46;;;;;;;222.90;61.07;;;;;;;7.28;68.84;101315.47;5051671;28;20447;-77
2022/01/03 01:43:14;;;;;;;116.82;59.55;;;;;;;7.55;68.88;101305.91;5051323;28;20905;-79
2022/01/03 01:45:43;;;;;;;290.13;59.05;;;;;;;7.63;67.41;101305.47;5051365;28;20906;-78
2022/01/03 01:48:13;;;;;;;107.63;53.97;;;;;;;7.43;68.42;101304.03;5051368;28;20909;-77
2022/01/03 01:50:42;;;;;;;97.70;55.20;;;;;;;7.91;66.81;101304.63;5033725;28;20483;-78
2022/01/03 01:53:10;;;;;;;165.02;59.08;;;;;;;8.26;64.95;101300.69;5051028;28;20925;-80
2022/01/03 01:55:40;;;;;;;175.10;64.18;;;;;;;8.40;63.98;101304.13;5033674;28;20417;-78
2022/01/03 01:58:24;;;;;;;88.57;58.70;;;;;;;8.63;63.65;101302.66;5066405;28;20501;-78
2022/01/03 02:00:59;;;;;;;107.13;59.53;;;;;;;8.70;63.33;101294.34;5051482;28;20413;-78
2022/01/03 02:03:39;;;;;;;122.32;60.30;;;;;;;8.85;63.03;101297.78;5050861;28;20914;-77
2022/01/03 02:06:28;;;;;;;104.78;57.67;;;;;;;8.65;63.54;101283.25;5051133;28;20500;-77
2022/01/03 02:09:05;;;;;;;114.00;57.13;;;;;;;8.80;62.98;101284.91;5048134;28;20452;-79
2022/01/03 02:11:48;;;;;;;102.82;56.65;;;;;;;8.79;62.70;101280.53;5050926;28;20503;-78
2022/01/03 02:14:15;;;;;;;164.35;59.72;;;;;;;8.54;63.23;101268.97;5050602;28;20926;-79
2022/01/03 02:16:43;;;;;;;97.00;54.20;;;;;;;8.27;63.90;101255.69;5050690;28;20412;-80
2022/01/03 02:19:12;;;;;;;144.77;53.78;;;;;;;8.08;64.37;101257.84;5050897;28;20417;-78
2022/01/03 02:21:41;;;;;;;98.00;54.67;;;;;;;8.00;64.92;101255.69;5032908;28;20420;-79
2022/01/03 02:24:09;;;;;;;171.15;58.80;;;;;;;8.16;63.64;101248.47;5050358;28;20878;-78
2022/01/03 02:26:36;;;;;;;103.47;58.35;;;;;;;8.25;63.68;101248.84;5050376;28;20906;-79
2022/01/03 02:29:04;;;;;;;97.55;56.10;;;;;;;8.12;64.48;101236.44;5050347;28;20444;-78
2022/01/03 02:31:32;;;;;;;158.20;59.13;;;;;;;8.03;64.23;101237.03;5050350;28;20849;-77
2022/01/03 02:34:00;;;;;;;109.82;56.55;;;;;;;7.71;65.12;101232.00;5050093;28;20439;-78
2022/01/03 02:36:27;;;;;;;107.43;56.05;;;;;;;7.33;66.53;101224.66;5048102;28;20515;-78
2022/01/03 02:38:57;;;;;;;166.75;50.83;;;;;;;6.78;68.13;101223.53;5050582;28;20487;-79
2022/01/03 02:41:24;;;;;;;350.38;66.55;;;;;;;7.30;65.88;101229.25;5049101;28;20439;-76
2022/01/03 02:43:51;;;;;;;135.68;61.13;;;;;;;7.81;64.00;101235.75;5048314;28;20442;-76
2022/01/03 02:46:19;;;;;;;126.40;58.65;;;;;;;8.08;62.99;101236.75;5049858;28;20488;-77
2022/01/03 02:48:46;;;;;;;167.60;54.45;;;;;;;7.76;63.94;101243.09;5047525;28;20499;-76
2022/01/03 02:51:13;;;;;;;95.38;43.95;;;;;;;7.43;65.00;101246.88;5048403;28;20906;-78
2022/01/03 02:53:40;;;;;;;216.50;49.25;;;;;;;7.52;64.29;101236.69;5050014;28;20439;-78
2022/01/03 02:56:09;;;;;;;95.28;49.30;;;;;;;7.65;63.90;101239.44;5049958;28;20440;-80
2022/01/03 02:58:36;;;;;;;83.32;50.00;;;;;;;7.98;63.30;101232.03;5049705;28;20487;-80
2022/01/03 03:01:04;;;;;;;118.15;49.58;;;;;;;7.79;63.61;101216.53;5049854;28;20475;-78
2022/01/03 03:03:31;;;;;;;144.32;52.20;;;;;;;7.33;65.18;101208.00;5049872;28;20423;-78
2022/01/03 03:05:59;;;;;;;210.30;54.45;;;;;;;7.47;64.31;101207.16;5049542;28;20417;-78
2022/01/03 03:08:26;;;;;;;242.77;56.30;;;;;;;7.63;64.06;101214.00;5049463;28;20914;-81
2022/01/03 03:10:53;;;;;;;175.85;49.13;;;;;;;7.39;64.56;101203.19;5048714;28;20507;-78
2022/01/03 03:13:22;;;;;;;107.70;46.25;;;;;;;7.56;63.90;101211.84;5048130;28;20432;-79
2022/01/03 03:15:49;;;;;;;137.25;47.42;;;;;;;7.48;63.71;101219.38;5048211;28;20841;-78
2022/01/03 03:18:17;;;;;;;121.18;48.28;;;;;;;7.37;64.35;101228.78;5049320;28;20428;-81
2022/01/03 03:20:45;;;;;;;110.03;48.05;;;;;;;7.39;64.21;101229.56;5049480;28;20413;-79
2022/01/03 03:23:12;;;;;;;115.22;49.67;;;;;;;7.29;64.95;101244.22;5049487;28;20423;-78
2022/01/03 03:25:39;;;;;;;96.33;48.13;;;;;;;7.21;65.21;101228.03;5049469;28;20791;-78
2022/01/03 03:28:09;;;;;;;102.07;46.47;;;;;;;6.95;65.69;101234.88;5049388;28;20448;-77
2022/01/03 03:30:41;;;;;;;88.55;44.00;;;;;;;6.69;66.47;101242.53;5047239;28;20954;-78
2022/01/03 03:33:11;;;;;;;80.80;44.73;;;;;;;6.73;66.35;101256.34;5014448;28;20429;-80
2022/01/03 03:35:39;;;;;;;77.73;46.73;;;;;;;6.57;66.19;101267.78;5041669;28;20474;-80
2022/01/03 03:38:06;;;;;;;151.23;46.10;;;;;;;6.45;66.27;101257.06;5048150;28;20506;-80
2022/01/03 03:40:34;;;;;;;115.95;44.80;;;;;;;6.55;65.82;101237.19;5031304;28;20408;-80
2022/01/03 03:43:01;;;;;;;80.05;44.45;;;;;;;6.40;66.33;101250.28;5062951;28;20495;-80
2022/01/03 03:45:28;;;;;;;85.70;45.17;;;;;;;6.58;65.64;101237.88;5029869;28;20953;-80
2022/01/03 03:47:58;;;;;;;66.55;48.70;;;;;;;6.75;65.25;101233.41;5047393;28;20421;-79
2022/01/03 03:50:25;;;;;;;102.65;49.65;;;;;;;6.89;64.07;101222.91;5047240;28;20427;-79
2022/01/03 03:52:52;;;;;;;97.05;50.90;;;;;;;6.30;65.35;101214.06;5046539;28;20535;-78
2022/01/03 03:55:19;;;;;;;69.55;45.83;;;;;;;5.87;66.25;101200.66;5047289;28;20487;-79
2022/01/03 03:57:46;;;;;;;74.68;52.95;;;;;;;6.12;66.77;101213.31;5047187;28;20421;-77
2022/01/03 04:00:16;;;;;;;68.18;49.70;;;;;;;6.39;65.43;101238.09;5047083;28;20419;-80
2022/01/03 04:02:43;;;;;;;73.88;55.85;;;;;;;6.37;65.21;101241.75;5047779;28;20504;-78
2022/01/03 04:05:12;;;;;;;79.30;60.35;;;;;;;6.56;64.24;101234.47;5047681;28;20937;-78
2022/01/03 04:07:39;;;;;;;270.27;196.45;;;;;;;6.49;64.66;101237.53;5048476;28;20520;-80
2022/01/03 04:10:08;;;;;;;64.70;55.13;;;;;;;6.51;64.56;101218.13;5048250;28;20415;-77
2022/01/03 04:12:35;;;;;;;70.32;55.88;;;;;;;6.75;63.20;101226.38;5047343;28;20914;-80
2022/01/03 04:15:02;;;;;;;81.68;56.90;;;;;;;6.48;64.24;101222.69;5048039;28;20412;-80
2022/01/03 04:17:29;;;;;;;89.20;55.17;;;;;;;6.52;63.80;101219.78;5048191;28;20533;-81
2022/01/03 04:19:56;;;;;;;77.85;54.00;;;;;;;6.64;63.07;101220.03;5048598;28;20838;-80
2022/01/03 04:22:24;;;;;;;77.32;53.88;;;;;;;6.68;62.73;101211.00;5047585;28;20415;-80
2022/01/03 04:24:51;;;;;;;61.97;51.73;;;;;;;6.38;64.37;101215.31;5051283;28;20568;-78
2022/01/03 04:27:18;;;;;;;76.13;54.15;;;;;;;6.60;63.49;101214.94;5050448;28;20423;-79
2022/01/03 04:29:45;;;;;;;66.18;47.70;;;;;;;5.98;65.60;101211.47;5032964;28;20420;-78
2022/01/03 04:32:12;;;;;;;50.45;43.75;;;;;;;5.54;67.53;101212.94;5050703;28;20420;-79
2022/01/03 04:34:39;;;;;;;67.07;44.97;;;;;;;5.41;68.07;101212.75;5051114;28;20432;-80
2022/01/03 04:37:06;;;;;;;55.88;49.40;;;;;;;5.63;67.42;101215.06;5032896;28;20489;-77
2022/01/03 04:39:34;;;;;;;55.85;48.70;;;;;;;5.34;68.32;101211.38;5033438;28;20422;-80
2022/01/03 04:42:01;;;;;;;59.45;46.40;;;;;;;4.95;69.91;101209.06;5051095;28;20409;-78
2022/01/03 04:44:29;;;;;;;66.63;44.97;;;;;;;4.85;70.44;101207.84;5051312;28;20491;-79
2022/01/03 04:46:56;;;;;;;73.43;39.07;;;;;;;4.47;71.65;101197.47;5050943;28;20416;-79
2022/01/03 04:49:23;;;;;;;68.53;45.78;;;;;;;4.45;72.58;101205.41;5050413;28;20417;-77
2022/01/03 04:51:50;;;;;;;73.80;50.45;;;;;;;4.97;70.78;101202.78;5050555;28;20412;-76
2022/01/03 04:54:18;;;;;;;93.32;59.97;;;;;;;5.31;69.20;101201.03;5051138;28;20511;-80
2022/01/03 04:56:46;;;;;;;82.65;56.70;;;;;;;5.15;69.73;101205.38;5034458;28;20397;-79
2022/01/03 04:59:13;;;;;;;103.25;92.47;;;;;;;5.82;67.37;101214.06;5049075;28;20408;-79
2022/01/03 05:01:40;;;;;;;72.57;55.93;;;;;;;6.11;65.45;101222.16;5032117;28;21012;-79
2022/01/03 05:04:07;;;;;;;65.57;52.00;;;;;;;6.31;64.60;101228.94;5040570;28;20401;-71
2022/01/03 05:06:34;;;;;;;68.72;50.20;;;;;;;6.29;64.26;101243.97;5018124;28;20450;-69
2022/01/03 05:09:02;;;;;;;87.47;50.70;;;;;;;6.29;64.47;101246.59;5000252;28;20409;-70
2022/01/03 05:11:28;;;;;;;66.25;44.72;;;;;;;5.83;65.08;101229.75;5017472;28;20441;-69
2022/01/03 05:13:57;;;;;;;60.30;38.22;;;;;;;5.23;67.83;101226.84;5017616;28;20424;-71
2022/01/03 05:16:25;;;;;;;65.53;37.92;;;;;;;5.13;67.47;101223.88;5017655;28;21094;-70
2022/01/03 05:18:52;;;;;;;79.40;41.67;;;;;;;5.15;67.53;101226.38;5018188;28;20404;-69
2022/01/03 05:21:20;;;;;;;85.78;42.47;;;;;;;5.18;67.08;101226.25;5017944;28;20503;-69
2022/01/03 05:23:47;;;;;;;119.47;45.70;;;;;;;5.51;65.75;101222.75;5018189;28;21195;-69
2022/01/03 05:26:16;;;;;;;113.20;43.97;;;;;;;5.51;65.52;101218.34;5018414;28;20396;-69
2022/01/03 05:28:45;;;;;;;83.18;43.45;;;;;;;5.29;66.70;101218.66;5017883;28;20408;-72
2022/01/03 05:31:14;;;;;;;121.10;44.33;;;;;;;5.04;67.75;101207.72;5015694;28;20419;-70
2022/01/03 05:33:41;;;;;;;63.25;41.58;;;;;;;5.37;66.82;101220.84;5015966;28;20485;-73
2022/01/03 05:36:08;;;;;;;184.23;51.38;;;;;;;5.46;65.57;101209.88;5010179;28;21230;-70
2022/01/03 05:38:35;;;;;;;107.80;57.47;;;;;;;5.89;64.45;101210.16;5016255;28;20491;-74
2022/01/03 05:41:02;;;;;;;137.07;57.33;;;;;;;6.01;63.83;101200.78;5016690;28;20411;-73
2022/01/03 05:43:29;;;;;;;142.45;56.75;;;;;;;6.06;63.90;101201.34;5016243;28;20561;-72
2022/01/03 05:45:56;;;;;;;124.57;60.63;;;;;;;6.19;63.38;101205.00;4998896;28;20418;-73
2022/01/03 05:48:25;;;;;;;146.73;59.80;;;;;;;6.21;63.24;101197.03;5016061;28;21195;-72
2022/01/03 05:50:52;;;;;;;154.70;59.13;;;;;;;5.82;64.54;101190.41;4998771;28;20440;-70
2022/01/03 05:53:19;;;;;;;172.60;48.80;;;;;;;5.61;65.60;101184.53;4998425;28;20502;-71
2022/01/03 05:55:46;;;;;;;135.48;47.08;;;;;;;5.44;65.89;101185.47;5016771;28;21296;-72
2022/01/03 05:58:14;;;;;;;163.90;45.45;;;;;;;5.63;65.09;101177.41;5016601;28;20494;-79
2022/01/03 06:00:42;;;;;;;85.63;43.90;;;;;;;5.95;64.00;101178.28;5015967;28;20412;-70
2022/01/03 06:03:09;;;;;;;90.38;39.72;;;;;;;5.98;63.50;101174.63;5016113;28;20408;-70
2022/01/03 06:05:53;;;;;;;69.65;42.33;;;;;;;5.88;63.73;101161.16;5016535;28;20503;-69
2022/01/03 06:08:20;;;;;;;85.85;42.97;;;;;;;5.98;63.75;101161.47;5016582;28;21265;-71
2022/01/03 06:10:47;;;;;;;66.68;44.33;;;;;;;5.98;63.63;101150.97;5030978;28;21161;-70
2022/01/03 06:13:14;;;;;;;59.83;50.15;;;;;;;6.16;63.67;101163.09;5015809;28;20488;-73
2022/01/03 06:15:42;;;;;;;42.83;35.10;;;;;;;6.22;63.04;101170.63;5016707;28;20491;-70
2022/01/03 06:18:11;;;;;;;41.80;37.53;;;;;;;6.08;63.27;101169.72;5016732;28;20400;-72
2022/01/03 06:20:41;;;;;;;49.45;44.08;;;;;;;6.30;62.40;101170.19;5017810;28;21245;-72
2022/01/03 06:23:09;;;;;;;48.78;43.88;;;;;;;6.79;61.54;101155.91;5018077;28;20411;-75
2022/01/03 06:25:37;;;;;;;52.60;47.33;;;;;;;7.13;60.13;101162.63;5016660;28;20458;-78
2022/01/03 06:28:07;;;;;;;46.67;39.72;;;;;;;6.42;61.22;101169.47;5050088;28;20408;-80
2022/01/03 06:30:34;;;;;;;57.25;50.97;;;;;;;6.11;61.94;101175.66;5032465;28;20482;-78
2022/01/03 06:33:02;;;;;;;62.53;49.70;;;;;;;6.08;62.02;101175.81;5050363;28;20408;-78
2022/01/03 06:35:29;;;;;;;56.80;45.75;;;;;;;6.14;61.11;101172.88;5045869;28;20857;-69
2022/01/03 06:37:57;;;;;;;43.20;34.55;;;;;;;5.87;61.02;101171.75;5040758;28;20413;-80
2022/01/03 06:40:25;;;;;;;40.80;30.93;;;;;;;6.26;59.83;101159.94;5049965;28;20416;-81
2022/01/03 06:42:52;;;;;;;59.60;52.38;;;;;;;7.79;55.82;101153.22;5049944;28;20428;-79
2022/01/03 06:45:19;;;;;;;44.90;40.10;;;;;;;9.13;52.72;101156.69;5049147;28;20507;-80
2022/01/03 06:47:46;;;;;;;42.47;36.80;;;;;;;11.63;47.75;101156.50;5050093;28;20444;-78
2022/01/03 06:50:34;;;;;;;34.70;31.08;;;;;;;13.54;42.65;101151.16;5049688;28;20438;-79
2022/01/03 06:53:02;;;;;;;28.90;26.00;;;;;;;15.38;38.96;101160.03;5049980;28;20966;-79
2022/01/03 06:55:29;;;;;;;25.05;22.65;;;;;;;16.74;36.46;101162.72;5050161;28;20583;-80
2022/01/03 06:57:56;;;;;;;24.35;21.95;;;;;;;18.39;33.07;101167.75;5049981;28;20421;-80
2022/01/03 07:00:23;;;;;;;23.63;21.33;;;;;;;19.00;32.28;101161.00;5049853;28;20455;-82
2022/01/03 07:02:50;;;;;;;24.55;22.25;;;;;;;20.12;30.33;101158.16;5050127;28;20500;-82
2022/01/03 07:05:17;;;;;;;24.52;22.13;;;;;;;21.73;28.00;101153.31;5049808;28;20416;-80
2022/01/03 07:07:44;;;;;;;27.88;25.17;;;;;;;22.67;26.58;101152.38;5050442;28;20408;-82
2022/01/03 07:10:14;;;;;;;40.73;36.33;;;;;;;23.62;25.62;101158.94;5050020;28;20449;-81
2022/01/03 07:12:41;;;;;;;38.10;34.60;;;;;;;23.52;25.52;101153.09;5049561;28;20409;-82
2022/01/03 07:20:38;;;;;;;28.30;25.70;;;;;;;21.29;28.37;101146.97;5049620;28;20905;-81
2022/01/03 07:23:05;;;;;;;33.22;30.33;;;;;;;21.12;28.17;101143.63;5048836;28;20413;-81
2022/01/03 07:25:34;;;;;;;32.90;30.00;;;;;;;21.89;27.84;101145.00;5049024;28;20412;-81
2022/01/03 07:28:00;;;;;;;28.63;26.13;;;;;;;23.52;25.53;101150.38;5063997;28;20458;-82
2022/01/03 07:30:27;;;;;;;30.05;27.35;;;;;;;23.85;25.07;101139.72;5048874;28;20413;-80
2022/01/03 07:32:54;;;;;;;30.38;27.67;;;;;;;23.49;25.53;101140.81;5048520;28;20412;-80
2022/01/03 07:35:22;;;;;;;29.33;26.63;;;;;;;23.13;26.25;101124.84;5046684;28;20462;-70
2022/01/03 07:37:50;;;;;;;29.90;26.73;;;;;;;23.76;25.79;101116.56;5035639;28;20846;-79
2022/01/03 07:40:17;;;;;;;35.30;32.17;;;;;;;24.29;25.13;101110.41;5064208;28;20436;-79
2022/01/03 07:42:45;;;;;;;32.85;30.10;;;;;;;24.66;24.69;101103.53;5048714;28;20447;-79
2022/01/03 07:45:12;;;;;;;31.35;28.75;;;;;;;23.42;26.16;101103.97;5049319;28;20408;-81
2022/01/03 07:47:40;;;;;;;33.47;29.92;;;;;;;22.61;26.96;101089.19;5049199;28;20421;-81
2022/01/03 07:50:08;;;;;;;36.05;32.15;;;;;;;21.32;28.33;101078.38;5049467;28;20467;-79
2022/01/03 07:52:35;;;;;;;39.03;34.33;;;;;;;21.28;28.60;101087.88;5049349;28;20496;-72
2022/01/03 07:55:03;;;;;;;42.45;37.08;;;;;;;21.44;28.13;101082.28;5049067;28;20466;-81
2022/01/03 07:57:30;;;;;;;52.25;41.50;;;;;;;21.33;28.59;101080.03;5051392;28;20789;-80
2022/01/03 07:59:58;;;;;;;61.05;47.95;;;;;;;21.46;28.95;101084.78;5053185;28;20981;-79
2022/01/03 08:02:28;;;;;;;75.10;65.53;;;;;;;21.19;29.74;101085.28;5053414;28;20417;-79
2022/01/03 08:04:55;;;;;;;41.57;36.57;;;;;;;22.48;28.04;101089.91;5053138;28;20419;-74
2022/01/03 08:07:22;;;;;;;34.72;31.10;;;;;;;20.45;30.19;101085.22;5053508;28;20455;-79
2022/01/03 08:09:49;;;;;;;28.73;26.00;;;;;;;18.55;32.72;101086.41;5053145;28;20835;-79
2022/01/03 08:12:18;;;;;;;25.98;23.48;;;;;;;18.41;33.64;101090.63;5053069;28;20491;-79
2022/01/03 08:14:45;;;;;;;26.60;24.10;;;;;;;19.27;32.55;101088.22;5053009;28;20486;-79
2022/01/03 08:17:13;;;;;;;28.13;25.47;;;;;;;19.60;32.68;101088.88;5053099;28;20499;-81
2022/01/03 08:19:40;;;;;;;27.00;24.48;;;;;;;20.83;31.03;101084.38;5053179;28;20488;-78
2022/01/03 08:22:07;;;;;;;25.40;22.90;;;;;;;22.86;28.44;101084.16;5053329;28;20408;-80
2022/01/03 08:24:34;;;;;;;29.77;26.58;;;;;;;24.03;26.31;101086.84;5052808;28;20903;-82
2022/01/03 08:27:01;;;;;;;27.27;24.60;;;;;;;25.21;24.97;101073.38;5052851;28;20497;-79
2022/01/03 08:29:28;;;;;;;29.87;27.17;;;;;;;26.60;23.72;101073.47;5051325;28;20419;-80
2022/01/03 08:31:55;;;;;;;28.77;26.17;;;;;;;26.98;23.30;101067.00;5050895;28;21065;-80
2022/01/03 08:34:23;;;;;;;32.20;28.90;;;;;;;26.29;23.99;101066.22;5051600;28;20511;-80
2022/01/03 08:36:50;;;;;;;56.97;51.67;;;;;;;26.70;23.76;101064.81;5033824;28;20784;-81
2022/01/03 08:39:17;;;;;;;38.78;34.83;;;;;;;24.54;26.40;101067.31;5052736;28;20419;-80
2022/01/03 08:41:44;;;;;;;32.70;29.30;;;;;;;23.47;28.08;101064.47;5052428;28;20409;-81
2022/01/03 08:44:11;;;;;;;33.87;29.10;;;;;;;25.37;25.94;101062.03;5051620;28;20419;-80
2022/01/03 08:46:38;;;;;;;22.95;20.45;;;;;;;25.66;25.25;101070.63;5052118;28;20405;-81
2022/01/03 08:49:05;;;;;;;31.63;28.20;;;;;;;28.64;22.08;101073.75;5052532;28;20412;-81
2022/01/03 08:51:35;;;;;;;25.08;22.58;;;;;;;29.89;20.29;101076.81;5051223;28;20420;-80
2022/01/03 08:54:02;;;;;;;27.57;24.67;;;;;;;31.73;19.25;101076.56;5052174;28;20491;-80
2022/01/03 08:56:29;;;;;;;21.85;19.65;;;;;;;32.50;17.33;101085.41;5052200;28;20419;-79
2022/01/03 08:58:56;;;;;;;26.17;23.55;;;;;;;34.59;16.05;101082.53;5052510;28;20491;-79
2022/01/03 09:01:23;;;;;;;25.80;23.30;;;;;;;35.08;15.37;101073.59;5034512;28;20487;-79
2022/01/03 09:03:50;;;;;;;26.75;24.05;;;;;;;36.16;15.06;101075.63;5066948;28;20413;-79
2022/01/03 09:06:17;;;;;;;33.80;30.30;;;;;;;37.33;14.44;101067.91;5052615;28;20412;-80
2022/01/03 09:08:46;;;;;;;76.55;68.95;;;;;;;37.85;13.62;101056.88;5051306;28;20417;-77
2022/01/03 09:11:14;;;;;;;54.50;48.83;;;;;;;38.42;13.52;101059.44;5051860;28;20444;-77
2022/01/03 09:13:42;;;;;;;36.95;33.25;;;;;;;36.66;13.94;101065.16;5052141;28;20519;-77
2022/01/03 09:16:09;;;;;;;30.25;26.83;;;;;;;35.17;15.13;101052.63;5052679;28;20511;-78
2022/01/03 09:18:38;;;;;;;31.13;26.58;;;;;;;35.99;14.80;101057.56;5051533;28;20523;-76
2022/01/03 09:21:06;;;;;;;33.25;22.38;;;;;;;33.65;16.23;101053.47;5034185;28;20424;-77
2022/01/03 09:23:37;;;;;;;25.42;20.10;;;;;;;33.06;16.94;101054.66;5051706;28;20607;-75
2022/01/03 09:28:52;;;;;;;12.25;9.75;;;;;;;36.78;13.54;101073.88;5051749;28;20600;-76
2022/01/03 09:31:23;;;;;;;12.67;8.67;;;;;;;38.05;12.07;101056.53;5051465;28;20489;-77
2022/01/03 09:33:50;;;;;;;9.50;7.55;;;;;;;39.00;11.72;101053.28;5051247;28;20424;-76
2022/01/03 09:36:17;;;;;;;13.48;8.20;;;;;;;40.09;10.46;101043.19;5034570;28;20455;-76
2022/01/03 09:38:44;;;;;;;11.73;7.03;;;;;;;40.52;10.07;101040.63;5050871;28;20977;-74
2022/01/03 09:41:13;;;;;;;16.73;8.05;;;;;;;39.08;11.39;101026.00;5050982;28;20409;-79
2022/01/03 09:43:47;;;;;;;11.53;9.30;;;;;;;36.65;12.34;101014.66;5050690;28;20447;-80
2022/01/03 09:46:18;;;;;;;9.67;6.47;;;;;;;37.89;11.45;101022.75;5050792;28;20952;-80
2022/01/03 09:48:51;;;;;;;8.27;6.40;;;;;;;35.53;13.24;101015.75;5051462;28;20420;-78
2022/01/03 09:51:19;;;;;;;5.93;4.35;;;;;;;33.39;14.28;101014.13;5066314;28;20470;-78
2022/01/03 09:53:46;;;;;;;10.73;5.43;;;;;;;31.82;15.32;101018.56;5051510;28;20416;-81
2022/01/03 09:56:16;;;;;;;6.32;5.40;;;;;;;31.49;15.70;101014.97;5051125;28;20867;-77
2022/01/03 09:58:43;;;;;;;9.70;6.43;;;;;;;30.96;16.08;101006.47;5051501;28;21009;-78
2022/01/03 10:01:11;;;;;;;7.43;4.90;;;;;;;31.49;15.75;101004.03;5051372;28;20409;-78
2022/01/03 10:03:41;;;;;;;5.47;3.70;;;;;;;34.40;13.55;101000.63;5066443;28;20456;-77
2022/01/03 10:06:08;;;;;;;11.75;10.52;;;;;;;34.51;13.25;100980.25;5050869;28;20475;-78
2022/01/03 10:08:35;;;;;;;5.20;4.43;;;;;;;31.75;15.00;100972.19;5050635;28;20948;-77
2022/01/03 10:11:02;;;;;;;6.55;5.35;;;;;;;29.99;16.04;100975.91;5050932;28;20556;-79
2022/01/03 10:13:30;;;;;;;11.25;10.30;;;;;;;28.56;17.27;100953.13;5050867;28;21065;-77
2022/01/03 10:15:58;;;;;;;7.53;6.25;;;;;;;28.13;17.63;100953.53;5050766;28;20498;-79
2022/01/03 10:18:26;;;;;;;6.75;6.10;;;;;;;27.26;18.36;100954.94;5050850;28;20503;-78
2022/01/03 10:20:54;;;;;;;6.00;4.78;;;;;;;27.30;18.06;100956.13;5033023;28;20412;-78
2022/01/03 10:23:21;;;;;;;5.53;4.93;;;;;;;27.16;18.55;100949.22;5050351;28;20911;-80
2022/01/03 10:25:48;;;;;;;5.65;4.90;;;;;;;28.02;18.13;100955.22;5050174;28;20432;-81
2022/01/03 10:28:24;;;;;;;6.10;4.20;;;;;;;27.88;17.98;100961.94;5051182;28;20415;-80
2022/01/03 10:30:53;;;;;;;5.77;4.97;;;;;;;27.01;18.98;100957.78;5065793;28;20413;-81
2022/01/03 10:33:22;;;;;;;5.57;4.63;;;;;;;26.80;19.02;100950.13;5050681;28;20496;-80
2022/01/03 10:35:51;;;;;;;8.90;7.60;;;;;;;26.61;19.03;100952.88;5047833;28;20453;-80
2022/01/03 10:38:33;;;;;;;9.77;8.25;;;;;;;26.65;19.04;100959.50;5049445;28;20416;-80
2022/01/03 10:41:12;;;;;;;7.68;4.93;;;;;;;25.75;20.01;100949.09;5050530;28;20455;-80
2022/01/03 10:43:40;;;;;;;7.57;5.45;;;;;;;25.47;20.61;100947.66;5050153;28;20415;-80
2022/01/03 10:46:19;;;;;;;6.85;5.47;;;;;;;25.38;20.63;100943.53;5050193;28;20440;-81
2022/01/03 10:48:47;;;;;;;9.68;7.07;;;;;;;26.03;20.29;100954.09;5050434;28;20419;-82
2022/01/03 10:51:22;;;;;;;9.50;6.70;;;;;;;26.85;19.22;100959.25;5050698;28;20417;-78
2022/01/03 10:53:51;;;;;;;10.25;6.82;;;;;;;27.32;18.76;100962.19;5050390;28;20421;-80
2022/01/03 10:56:30;;;;;;;7.17;5.40;;;;;;;27.32;18.90;100953.19;5048806;28;20821;-80
2022/01/03 10:58:57;;;;;;;8.93;6.40;;;;;;;27.56;18.51;100959.50;5048150;28;20993;-78
2022/01/03 11:01:29;;;;;;;9.65;6.60;;;;;;;26.97;19.41;100965.56;5032625;28;20421;-80
2022/01/03 11:04:00;;;;;;;10.15;6.32;;;;;;;27.10;19.13;100961.00;5049614;28;20496;-80
2022/01/03 11:06:48;;;;;;;9.93;8.10;;;;;;;27.91;18.59;100954.13;5032423;28;20945;-82
2022/01/03 11:12:18;;;;;;;7.72;5.78;;;;;;;29.03;17.65;100945.84;5049884;28;20407;-80
2022/01/03 11:14:46;;;;;;;9.70;6.50;;;;;;;29.43;17.41;100945.78;5049954;28;20404;-82
2022/01/03 11:17:26;;;;;;;8.93;6.00;;;;;;;29.49;17.35;100952.97;5050503;28;20495;-74
2022/01/03 11:19:56;;;;;;;5.60;4.88;;;;;;;29.04;17.13;100942.06;5050080;28;20432;-80
2022/01/03 11:22:41;;;;;;;6.43;4.68;;;;;;;28.72;17.49;100950.72;5049817;28;20418;-82
2022/01/03 11:25:09;;;;;;;8.25;7.35;;;;;;;29.23;17.15;100956.34;5049382;28;20435;-80
2022/01/03 11:27:39;;;;;;;9.43;8.25;;;;;;;29.77;16.94;100947.72;5049869;28;20416;-81
2022/01/03 11:30:08;;;;;;;8.50;5.78;;;;;;;29.96;16.60;100949.09;5049670;28;20421;-82
2022/01/03 11:32:39;;;;;;;6.68;5.40;;;;;;;29.96;16.54;100954.56;5049993;28;20448;-80